Time;durP1;ratioP1;P1;durP2;ratioP2;P2;SDS_P1;SDS_P2;PMS_P1;PMS_P2;Temp;Humidity;BMP_temperature;BMP_pressure;BME280_temperature;BME280_humidity;BME280_pressure;Samples;Min_cycle;Max_cycle;Signal;HPM_P1;HPM_P2
2021/10/09 00:00:46;;;;;;;;;;;;;;;;;;2099823;27;4705;-76
2021/10/09 00:01:46;;;;;;;;;;;;;;;;;;2098965;27;4723;-76
2021/10/09 00:02:47;;;;;;;;;;;;;;;;;;2099622;27;4946;-78
2021/10/09 00:03:47;;;;;;;;;;;;;;;;;;2101595;27;4518;-78
2021/10/09 00:04:48;;;;;;;;;;;;;;;;;;2100635;27;4793;-78
2021/10/09 00:05:49;;;;;;;;;;;;;;;;;;2101847;28;1456;-78
2021/10/09 00:06:50;;;;;;;;;;;;;;;;;;2101704;27;1171;-78
2021/10/09 00:07:51;;;;;;;;;;;;;;;;;;2102291;27;1227;-79
2021/10/09 00:08:52;;;;;;;;;;;;;;;;;;2101326;28;4891;-79
2021/10/09 00:09:57;;;;;;;;;;;;;;;;;;2102835;27;4962;-79
2021/10/09 00:10:58;;;;;;;;;;;;;;;;;;2102126;27;1403;-78
2021/10/09 00:11:58;;;;;;;;;;;;;;;;;;2101785;27;1248;-79
2021/10/09 00:13:00;;;;;;;;;;;;;;;;;;2102525;27;2750;-78
2021/10/09 00:14:00;;;;;;;;;;;;;;;;;;2101466;27;5011;-78
2021/10/09 00:15:01;;;;;;;;;;;;;;;;;;2101266;28;4553;-79
2021/10/09 00:16:01;;;;;;;;;;;;;;;;;;2102620;27;4277;-79
2021/10/09 00:17:02;;;;;;;;;;;;;;;;;;2101661;27;1083;-78
2021/10/09 00:18:03;;;;;;;;;;;;;;;;;;2102245;27;1282;-78
2021/10/09 00:19:03;;;;;;;;;;;;;;;;;;2101608;27;3262;-78
2021/10/09 00:20:04;;;;;;;;;;;;;;;;;;2101973;27;1168;-79
2021/10/09 00:21:05;;;;;;;;;;;;;;;;;;2098787;28;1264;-76
2021/10/09 00:22:06;;;;;;;;;;;;;;;;;;2100677;27;1151;-75
2021/10/09 00:23:06;;;;;;;;;;;;;;;;;;2100701;27;1397;-76
2021/10/09 00:24:07;;;;;;;;;;;;;;;;;;2100087;27;4747;-76
2021/10/09 00:25:08;;;;;;;;;;;;;;;;;;2100160;27;4732;-76
2021/10/09 00:26:08;;;;;;;;;;;;;;;;;;2099867;27;2565;-76
2021/10/09 00:27:10;;;;;;;;;;;;;;;;;;2100135;27;1292;-76
2021/10/09 00:28:10;;;;;;;;;;;;;;;;;;2099479;27;4758;-75
2021/10/09 00:29:11;;;;;;;;;;;;;;;;;;2100062;28;5178;-76
2021/10/09 00:30:11;;;;;;;;;;;;;;;;;;2099915;27;1276;-76
2021/10/09 00:31:12;;;;;;;;;;;;;;;;;;2101291;27;1120;-75
2021/10/09 00:32:13;;;;;;;;;;;;;;;;;;2100114;28;4853;-76
2021/10/09 00:33:14;;;;;;;;;;;;;;;;;;2101377;27;5000;-76
2021/10/09 00:34:14;;;;;;;;;;;;;;;;;;2100509;27;4662;-76
2021/10/09 00:35:15;;;;;;;;;;;;;;;;;;2100872;27;1280;-76
2021/10/09 00:36:15;;;;;;;;;;;;;;;;;;2099647;27;4853;-76
2021/10/09 00:37:16;;;;;;;;;;;;;;;;;;2101617;27;2569;-78
2021/10/09 00:38:17;;;;;;;;;;;;;;;;;;2101472;27;1388;-79
2021/10/09 00:39:17;;;;;;;;;;;;;;;;;;2101849;27;4572;-78
2021/10/09 00:40:18;;;;;;;;;;;;;;;;;;2101553;28;5266;-79
2021/10/09 00:41:18;;;;;;;;;;;;;;;;;;2101366;27;4184;-78
2021/10/09 00:42:20;;;;;;;;;;;;;;;;;;2103607;27;4758;-78
2021/10/09 00:43:20;;;;;;;;;;;;;;;;;;2101533;27;4554;-78
2021/10/09 00:44:21;;;;;;;;;;;;;;;;;;2102517;27;1257;-78
2021/10/09 00:45:22;;;;;;;;;;;;;;;;;;2102166;27;1250;-79
2021/10/09 00:46:22;;;;;;;;;;;;;;;;;;2101778;28;4560;-79
2021/10/09 00:47:23;;;;;;;;;;;;;;;;;;2102314;27;4811;-78
2021/10/09 00:48:23;;;;;;;;;;;;;;;;;;2102283;27;4747;-78
2021/10/09 00:49:24;;;;;;;;;;;;;;;;;;2102107;27;1988;-78
2021/10/09 00:50:24;;;;;;;;;;;;;;;;;;2101889;27;4817;-78
2021/10/09 00:51:26;;;;;;;;;;;;;;;;;;2102544;27;1129;-79
2021/10/09 00:52:26;;;;;;;;;;;;;;;;;;2103492;27;1236;-78
2021/10/09 00:53:27;;;;;;;;;;;;;;;;;;2100727;28;4696;-79
2021/10/09 00:54:27;;;;;;;;;;;;;;;;;;2102417;27;4925;-78
2021/10/09 00:55:28;;;;;;;;;;;;;;;;;;2102063;27;4652;-79
2021/10/09 00:56:28;;;;;;;;;;;;;;;;;;2103086;27;4971;-78
2021/10/09 00:57:29;;;;;;;;;;;;;;;;;;2102799;27;1074;-78
2021/10/09 00:58:29;;;;;;;;;;;;;;;;;;2100614;27;4236;-76
2021/10/09 00:59:31;;;;;;;;;;;;;;;;;;2101402;27;1630;-76
2021/10/09 01:00:31;;;;;;;;;;;;;;;;;;2104085;27;1148;-79
2021/10/09 01:01:32;;;;;;;;;;;;;;;;;;2103691;27;1287;-78
2021/10/09 01:02:32;;;;;;;;;;;;;;;;;;2103047;27;1243;-78
2021/10/09 01:03:34;;;;;;;;;;;;;;;;;;2103250;27;1327;-78
2021/10/09 01:04:34;;;;;;;;;;;;;;;;;;2103873;27;1182;-78
2021/10/09 01:05:35;;;;;;;;;;;;;;;;;;2102206;27;1952;-79
2021/10/09 01:06:35;;;;;;;;;;;;;;;;;;2103306;27;905;-77
2021/10/09 01:07:36;;;;;;;;;;;;;;;;;;2103096;27;1312;-78
2021/10/09 01:08:36;;;;;;;;;;;;;;;;;;2102208;27;2472;-78
2021/10/09 01:09:37;;;;;;;;;;;;;;;;;;2101539;27;2473;-79
2021/10/09 01:10:37;;;;;;;;;;;;;;;;;;2101204;27;4380;-78
2021/10/09 01:11:40;;;;;;;;;;;;;;;;;;2103205;27;5450;-78
2021/10/09 01:12:41;;;;;;;;;;;;;;;;;;2102269;27;4505;-78
2021/10/09 01:13:41;;;;;;;;;;;;;;;;;;2103757;28;5114;-78
2021/10/09 01:14:42;;;;;;;;;;;;;;;;;;2102625;27;1075;-78
2021/10/09 01:15:44;;;;;;;;;;;;;;;;;;2103927;27;1427;-78
2021/10/09 01:16:46;;;;;;;;;;;;;;;;;;2102956;27;1158;-78
2021/10/09 01:17:46;;;;;;;;;;;;;;;;;;2103882;27;1213;-78
2021/10/09 01:18:47;;;;;;;;;;;;;;;;;;2103662;27;4813;-78
2021/10/09 01:19:48;;;;;;;;;;;;;;;;;;2100599;28;1250;-78
2021/10/09 01:20:48;;;;;;;;;;;;;;;;;;2101762;27;1299;-78
2021/10/09 01:21:49;;;;;;;;;;;;;;;;;;2103285;27;4881;-78
2021/10/09 01:22:49;;;;;;;;;;;;;;;;;;2102098;27;4561;-78
2021/10/09 01:23:51;;;;;;;;;;;;;;;;;;2103105;27;1201;-78
2021/10/09 01:24:51;;;;;;;;;;;;;;;;;;2103997;27;1149;-78
2021/10/09 01:25:52;;;;;;;;;;;;;;;;;;2102626;27;2393;-78
2021/10/09 01:26:52;;;;;;;;;;;;;;;;;;2103690;27;1285;-78
2021/10/09 01:27:53;;;;;;;;;;;;;;;;;;2104731;27;1258;-78
2021/10/09 01:28:53;;;;;;;;;;;;;;;;;;2102234;27;4945;-77
2021/10/09 01:29:54;;;;;;;;;;;;;;;;;;2100789;27;4920;-77
2021/10/09 01:30:54;;;;;;;;;;;;;;;;;;2103574;27;1274;-78
2021/10/09 01:31:56;;;;;;;;;;;;;;;;;;2103100;27;1562;-78
2021/10/09 01:32:56;;;;;;;;;;;;;;;;;;2102734;27;1410;-79
2021/10/09 01:33:57;;;;;;;;;;;;;;;;;;2101923;28;1226;-78
2021/10/09 01:34:57;;;;;;;;;;;;;;;;;;2102323;28;2501;-78
2021/10/09 01:35:58;;;;;;;;;;;;;;;;;;2102827;27;2430;-78
2021/10/09 01:36:58;;;;;;;;;;;;;;;;;;2102553;27;3307;-79
2021/10/09 01:37:59;;;;;;;;;;;;;;;;;;2102023;27;1159;-78
2021/10/09 01:39:00;;;;;;;;;;;;;;;;;;2102200;27;4426;-78
2021/10/09 01:40:02;;;;;;;;;;;;;;;;;;2102579;28;1255;-79
2021/10/09 01:41:02;;;;;;;;;;;;;;;;;;2101717;27;1234;-77
2021/10/09 01:42:04;;;;;;;;;;;;;;;;;;2100493;27;1141;-77
2021/10/09 01:43:04;;;;;;;;;;;;;;;;;;2100870;27;1289;-77
2021/10/09 01:44:05;;;;;;;;;;;;;;;;;;2101360;27;1170;-76
2021/10/09 01:45:05;;;;;;;;;;;;;;;;;;2100924;27;1214;-77
2021/10/09 01:46:06;;;;;;;;;;;;;;;;;;2101812;27;4905;-77
2021/10/09 01:47:06;;;;;;;;;;;;;;;;;;2101138;27;1260;-76
2021/10/09 01:48:07;;;;;;;;;;;;;;;;;;2101460;27;1276;-77
2021/10/09 01:49:07;;;;;;;;;;;;;;;;;;2101956;27;2343;-77
2021/10/09 01:50:08;;;;;;;;;;;;;;;;;;2100829;27;4210;-77
2021/10/09 01:51:09;;;;;;;;;;;;;;;;;;2100521;28;1070;-77
2021/10/09 01:52:10;;;;;;;;;;;;;;;;;;2101467;27;1103;-77
2021/10/09 01:53:10;;;;;;;;;;;;;;;;;;2101139;28;1314;-77
2021/10/09 01:54:11;;;;;;;;;;;;;;;;;;2101561;27;1107;-76
2021/10/09 01:55:11;;;;;;;;;;;;;;;;;;2100753;28;4346;-77
2021/10/09 01:56:12;;;;;;;;;;;;;;;;;;2101023;27;4957;-77
2021/10/09 01:57:12;;;;;;;;;;;;;;;;;;2101476;27;1267;-77
2021/10/09 01:58:14;;;;;;;;;;;;;;;;;;2100450;27;1110;-77
2021/10/09 01:59:14;;;;;;;;;;;;;;;;;;2100745;28;5426;-77
2021/10/09 02:00:15;;;;;;;;;;;;;;;;;;2101160;27;1241;-77
2021/10/09 02:01:15;;;;;;;;;;;;;;;;;;2101114;28;1155;-77
2021/10/09 02:02:16;;;;;;;;;;;;;;;;;;2102194;27;1209;-77
2021/10/09 02:03:18;;;;;;;;;;;;;;;;;;2101465;27;1279;-77
2021/10/09 02:04:24;;;;;;;;;;;;;;;;;;2101282;27;4427;-77
2021/10/09 02:05:24;;;;;;;;;;;;;;;;;;2102423;27;5000;-77
2021/10/09 02:06:25;;;;;;;;;;;;;;;;;;2099854;27;1923;-77
2021/10/09 02:07:25;;;;;;;;;;;;;;;;;;2100931;28;1103;-76
2021/10/09 02:08:27;;;;;;;;;;;;;;;;;;2100146;27;4618;-77
2021/10/09 02:09:27;;;;;;;;;;;;;;;;;;2101742;27;1429;-76
2021/10/09 02:10:28;;;;;;;;;;;;;;;;;;2100241;27;1910;-77
2021/10/09 02:11:36;;;;;;;;;;;;;;;;;;2100782;27;1415;-76
2021/10/09 02:12:37;;;;;;;;;;;;;;;;;;2101409;27;1272;-77
2021/10/09 02:13:42;;;;;;;;;;;;;;;;;;2101129;27;1362;-77
2021/10/09 02:14:46;;;;;;;;;;;;;;;;;;2099892;27;5426;-77
2021/10/09 02:15:50;;;;;;;;;;;;;;;;;;2100042;27;4881;-77
2021/10/09 02:24:53;;;;;;;;;;;;;;;;;;2098470;28;4822;-77
2021/10/09 02:25:53;;;;;;;;;;;;;;;;;;2101079;27;1332;-77
2021/10/09 02:26:55;;;;;;;;;;;;;;;;;;2101383;27;1219;-76
2021/10/09 02:27:55;;;;;;;;;;;;;;;;;;2101658;28;1403;-77
2021/10/09 02:28:56;;;;;;;;;;;;;;;;;;2100127;28;2003;-77
2021/10/09 02:29:56;;;;;;;;;;;;;;;;;;2101126;28;1961;-77
2021/10/09 02:30:57;;;;;;;;;;;;;;;;;;2101113;27;4395;-77
2021/10/09 02:31:57;;;;;;;;;;;;;;;;;;2101519;28;2157;-77
2021/10/09 02:32:58;;;;;;;;;;;;;;;;;;2099798;28;3322;-77
2021/10/09 02:33:59;;;;;;;;;;;;;;;;;;2100364;28;5436;-78
2021/10/09 02:35:00;;;;;;;;;;;;;;;;;;2101043;28;4890;-77
2021/10/09 02:36:00;;;;;;;;;;;;;;;;;;2099726;27;4698;-76
2021/10/09 02:37:01;;;;;;;;;;;;;;;;;;2101173;28;4677;-76
2021/10/09 02:38:01;;;;;;;;;;;;;;;;;;2101264;27;4752;-77
2021/10/09 02:39:02;;;;;;;;;;;;;;;;;;2101557;27;4639;-77
2021/10/09 02:40:02;;;;;;;;;;;;;;;;;;2102193;27;1060;-77
2021/10/09 02:41:03;;;;;;;;;;;;;;;;;;2101369;28;1087;-76
2021/10/09 02:42:04;;;;;;;;;;;;;;;;;;2101979;28;1192;-77
2021/10/09 02:43:05;;;;;;;;;;;;;;;;;;2102286;28;1212;-77
2021/10/09 02:44:05;;;;;;;;;;;;;;;;;;2102786;27;1282;-77
2021/10/09 02:45:06;;;;;;;;;;;;;;;;;;2102216;28;2429;-77
2021/10/09 02:46:06;;;;;;;;;;;;;;;;;;2103992;28;1330;-77
2021/10/09 02:47:07;;;;;;;;;;;;;;;;;;2101679;27;1258;-77
2021/10/09 02:48:07;;;;;;;;;;;;;;;;;;2100759;28;4853;-77
2021/10/09 02:49:08;;;;;;;;;;;;;;;;;;2101435;28;5238;-77
2021/10/09 02:50:13;;;;;;;;;;;;;;;;;;2101142;28;1967;-77
2021/10/09 02:51:14;;;;;;;;;;;;;;;;;;2100584;28;1177;-76
2021/10/09 02:52:14;;;;;;;;;;;;;;;;;;2101444;28;1196;-77
2021/10/09 02:53:15;;;;;;;;;;;;;;;;;;2101592;27;1479;-77
2021/10/09 02:54:15;;;;;;;;;;;;;;;;;;2100687;27;4710;-78
2021/10/09 02:55:18;;;;;;;;;;;;;;;;;;2102034;28;1252;-77
2021/10/09 02:56:18;;;;;;;;;;;;;;;;;;2101461;27;1409;-77
2021/10/09 02:57:19;;;;;;;;;;;;;;;;;;2101672;28;1091;-77
2021/10/09 02:58:19;;;;;;;;;;;;;;;;;;2101155;28;4519;-77
2021/10/09 02:59:21;;;;;;;;;;;;;;;;;;2101036;27;2540;-77
2021/10/09 03:00:21;;;;;;;;;;;;;;;;;;2101814;28;1216;-77
2021/10/09 03:01:22;;;;;;;;;;;;;;;;;;2102106;28;1967;-76
2021/10/09 03:02:22;;;;;;;;;;;;;;;;;;2101409;27;1470;-76
2021/10/09 03:03:24;;;;;;;;;;;;;;;;;;2101175;27;1204;-76
2021/10/09 03:04:24;;;;;;;;;;;;;;;;;;2099927;28;3008;-77
2021/10/09 03:05:25;;;;;;;;;;;;;;;;;;2100042;27;1151;-77
2021/10/09 03:06:26;;;;;;;;;;;;;;;;;;2099918;28;1066;-77
2021/10/09 03:07:27;;;;;;;;;;;;;;;;;;2098457;28;1075;-77
2021/10/09 03:08:27;;;;;;;;;;;;;;;;;;2098764;28;4518;-77
2021/10/09 03:09:28;;;;;;;;;;;;;;;;;;2098880;28;1283;-77
2021/10/09 03:10:28;;;;;;;;;;;;;;;;;;2098783;28;1909;-77
2021/10/09 03:11:29;;;;;;;;;;;;;;;;;;2098258;28;1513;-76
2021/10/09 03:12:29;;;;;;;;;;;;;;;;;;2099145;27;1106;-76
2021/10/09 03:13:30;;;;;;;;;;;;;;;;;;2098789;27;1255;-77
2021/10/09 03:14:31;;;;;;;;;;;;;;;;;;2098805;27;4746;-77
2021/10/09 03:15:32;;;;;;;;;;;;;;;;;;2096028;28;1353;-77
2021/10/09 03:16:32;;;;;;;;;;;;;;;;;;2098135;28;1144;-77
2021/10/09 03:17:33;;;;;;;;;;;;;;;;;;2098205;28;1275;-77
2021/10/09 03:18:33;;;;;;;;;;;;;;;;;;2098254;28;2751;-77
2021/10/09 03:19:34;;;;;;;;;;;;;;;;;;2098428;28;1353;-77
2021/10/09 03:20:36;;;;;;;;;;;;;;;;;;2098907;28;1220;-77
2021/10/09 03:21:37;;;;;;;;;;;;;;;;;;2098413;28;1080;-77
2021/10/09 03:22:37;;;;;;;;;;;;;;;;;;2099234;28;1186;-76
2021/10/09 03:23:38;;;;;;;;;;;;;;;;;;2098630;28;1380;-77
2021/10/09 03:24:38;;;;;;;;;;;;;;;;;;2099107;28;5423;-77
2021/10/09 03:25:39;;;;;;;;;;;;;;;;;;2098750;27;1220;-76
2021/10/09 03:26:39;;;;;;;;;;;;;;;;;;2099330;28;1212;-77
2021/10/09 03:27:41;;;;;;;;;;;;;;;;;;2099334;27;1251;-76
2021/10/09 03:28:42;;;;;;;;;;;;;;;;;;2097816;28;4460;-77
2021/10/09 03:29:42;;;;;;;;;;;;;;;;;;2098945;27;3382;-77
2021/10/09 03:30:43;;;;;;;;;;;;;;;;;;2097395;28;2127;-76
2021/10/09 03:31:43;;;;;;;;;;;;;;;;;;2099421;27;1770;-77
2021/10/09 03:32:44;;;;;;;;;;;;;;;;;;2099449;28;1797;-77
2021/10/09 03:33:44;;;;;;;;;;;;;;;;;;2098662;28;1342;-77
2021/10/09 03:34:45;;;;;;;;;;;;;;;;;;2098044;28;4605;-77
2021/10/09 03:35:46;;;;;;;;;;;;;;;;;;2099098;28;2661;-77
2021/10/09 03:36:48;;;;;;;;;;;;;;;;;;2100126;28;4434;-77
2021/10/09 03:37:48;;;;;;;;;;;;;;;;;;2100713;28;1221;-77
2021/10/09 03:38:49;;;;;;;;;;;;;;;;;;2100034;28;2756;-77
2021/10/09 03:39:51;;;;;;;;;;;;;;;;;;2099668;28;1102;-77
2021/10/09 03:40:56;;;;;;;;;;;;;;;;;;2100852;28;1161;-76
2021/10/09 03:42:43;;;;;;;;;;;;;;;;;;2121940;27;1961;-76
2021/10/09 03:43:45;;;;;;;;;;;;;;;;;;2122960;27;1350;-77
2021/10/09 03:44:49;;;;;;;;;;;;;;;;;;2122948;27;4725;-76
2021/10/09 03:45:56;;;;;;;;;;;;;;;;;;2123161;27;1242;-76
2021/10/09 03:47:00;;;;;;;;;;;;;;;;;;2123940;27;1139;-76
2021/10/09 03:48:19;;;;;;;;;;;;;;;;;;2124005;27;1593;-76
2021/10/09 03:49:23;;;;;;;;;;;;;;;;;;2123182;27;2815;-76
2021/10/09 03:52:21;;;;;;;;;;;;;;;;;;2123745;27;1210;-77
2021/10/09 03:53:07;;;;;;;;;;;;;;;;;;2123761;27;2019;-77
2021/10/09 03:54:09;;;;;;;;;;;;;;;;;;2124231;27;1214;-76
2021/10/09 03:55:09;;;;;;;;;;;;;;;;;;2121687;27;4867;-76
2021/10/09 03:56:10;;;;;;;;;;;;;;;;;;2123335;27;1284;-76
2021/10/09 03:57:10;;;;;;;;;;;;;;;;;;2123467;27;1163;-77
2021/10/09 03:58:11;;;;;;;;;;;;;;;;;;2124080;27;998;-76
2021/10/09 03:59:11;;;;;;;;;;;;;;;;;;2123742;27;4568;-76
2021/10/09 04:00:12;;;;;;;;;;;;;;;;;;2124601;27;1041;-76
2021/10/09 04:01:13;;;;;;;;;;;;;;;;;;2124246;27;1294;-76
2021/10/09 04:02:14;;;;;;;;;;;;;;;;;;2123908;27;1910;-76
2021/10/09 04:03:14;;;;;;;;;;;;;;;;;;2124227;27;1480;-76
2021/10/09 04:04:15;;;;;;;;;;;;;;;;;;2124447;27;1305;-76
2021/10/09 04:05:15;;;;;;;;;;;;;;;;;;2123759;27;4907;-76
2021/10/09 04:06:16;;;;;;;;;;;;;;;;;;2125109;27;1274;-76
2021/10/09 04:07:16;;;;;;;;;;;;;;;;;;2124525;27;1098;-76
2021/10/09 04:08:18;;;;;;;;;;;;;;;;;;2124327;27;1219;-77
2021/10/09 04:09:18;;;;;;;;;;;;;;;;;;2123663;27;4687;-76
2021/10/09 04:10:21;;;;;;;;;;;;;;;;;;2124625;27;1285;-77
2021/10/09 04:11:22;;;;;;;;;;;;;;;;;;2124507;27;1490;-77
2021/10/09 04:12:22;;;;;;;;;;;;;;;;;;2124982;27;1234;-77
2021/10/09 04:13:23;;;;;;;;;;;;;;;;;;2124993;27;1345;-76
2021/10/09 04:14:23;;;;;;;;;;;;;;;;;;2119838;27;4690;-76
2021/10/09 04:15:24;;;;;;;;;;;;;;;;;;2123179;27;2607;-77
2021/10/09 04:16:24;;;;;;;;;;;;;;;;;;2124338;27;1097;-76
2021/10/09 04:17:25;;;;;;;;;;;;;;;;;;2125114;27;1257;-76
2021/10/09 04:18:25;;;;;;;;;;;;;;;;;;2123845;27;2549;-76
2021/10/09 04:19:27;;;;;;;;;;;;;;;;;;2123858;27;2845;-76
2021/10/09 04:20:27;;;;;;;;;;;;;;;;;;2125247;27;1389;-76
2021/10/09 04:21:28;;;;;;;;;;;;;;;;;;2125171;27;1941;-76
2021/10/09 04:22:28;;;;;;;;;;;;;;;;;;2123864;27;1166;-77
2021/10/09 04:23:29;;;;;;;;;;;;;;;;;;2123878;27;1365;-76
2021/10/09 04:24:29;;;;;;;;;;;;;;;;;;2122496;27;4732;-76
2021/10/09 04:25:30;;;;;;;;;;;;;;;;;;2121709;27;3122;-76
2021/10/09 04:26:31;;;;;;;;;;;;;;;;;;2123144;27;4525;-76
2021/10/09 04:27:32;;;;;;;;;;;;;;;;;;2122771;27;4667;-76
2021/10/09 04:28:34;;;;;;;;;;;;;;;;;;2121136;27;4735;-76
2021/10/09 04:29:34;;;;;;;;;;;;;;;;;;2120623;27;1278;-76
2021/10/09 04:30:35;;;;;;;;;;;;;;;;;;2121631;27;1143;-76
2021/10/09 04:31:36;;;;;;;;;;;;;;;;;;2121730;27;1113;-77
2021/10/09 04:32:37;;;;;;;;;;;;;;;;;;2121502;27;1235;-76
2021/10/09 04:33:37;;;;;;;;;;;;;;;;;;2121748;27;1520;-76
2021/10/09 04:34:38;;;;;;;;;;;;;;;;;;2121309;27;3248;-76
2021/10/09 04:35:38;;;;;;;;;;;;;;;;;;2120229;27;1373;-76
2021/10/09 04:36:39;;;;;;;;;;;;;;;;;;2121209;27;1262;-76
2021/10/09 04:37:39;;;;;;;;;;;;;;;;;;2120603;27;1472;-76
2021/10/09 04:38:40;;;;;;;;;;;;;;;;;;2120926;27;5065;-76
2021/10/09 04:39:41;;;;;;;;;;;;;;;;;;2121520;27;1178;-76
2021/10/09 04:40:42;;;;;;;;;;;;;;;;;;2120700;27;2566;-76
2021/10/09 04:41:42;;;;;;;;;;;;;;;;;;2121599;27;1914;-76
2021/10/09 04:42:43;;;;;;;;;;;;;;;;;;2121682;27;1036;-76
2021/10/09 04:43:43;;;;;;;;;;;;;;;;;;2121586;27;1283;-76
2021/10/09 04:44:44;;;;;;;;;;;;;;;;;;2121523;27;2339;-76
2021/10/09 04:45:45;;;;;;;;;;;;;;;;;;2121747;27;1274;-76
2021/10/09 04:46:46;;;;;;;;;;;;;;;;;;2121506;27;1511;-76
2021/10/09 04:47:47;;;;;;;;;;;;;;;;;;2121470;27;4814;-77
2021/10/09 04:48:47;;;;;;;;;;;;;;;;;;2121155;27;4503;-76
2021/10/09 04:49:48;;;;;;;;;;;;;;;;;;2121810;27;1286;-76
2021/10/09 04:50:48;;;;;;;;;;;;;;;;;;2122607;27;1044;-76
2021/10/09 04:51:49;;;;;;;;;;;;;;;;;;2122342;27;1171;-77
2021/10/09 04:52:49;;;;;;;;;;;;;;;;;;2120965;27;1240;-76
2021/10/09 04:53:50;;;;;;;;;;;;;;;;;;2115622;27;1092;-76
2021/10/09 04:54:51;;;;;;;;;;;;;;;;;;2115593;27;4789;-77
2021/10/09 04:55:52;;;;;;;;;;;;;;;;;;2116058;27;1229;-76
2021/10/09 04:56:52;;;;;;;;;;;;;;;;;;2115877;27;1136;-77
2021/10/09 04:57:53;;;;;;;;;;;;;;;;;;2116753;27;1145;-77
2021/10/09 04:58:53;;;;;;;;;;;;;;;;;;2115201;27;4001;-76
2021/10/09 04:59:54;;;;;;;;;;;;;;;;;;2116183;27;1000;-76
2021/10/09 05:00:54;;;;;;;;;;;;;;;;;;2116376;27;1090;-76
2021/10/09 05:01:55;;;;;;;;;;;;;;;;;;2116376;27;1987;-76
2021/10/09 05:02:57;;;;;;;;;;;;;;;;;;2116426;27;1378;-76
2021/10/09 05:03:57;;;;;;;;;;;;;;;;;;2114099;27;4066;-76
2021/10/09 05:04:58;;;;;;;;;;;;;;;;;;2114524;27;4493;-77
2021/10/09 05:05:58;;;;;;;;;;;;;;;;;;2115677;27;4472;-76
2021/10/09 05:06:59;;;;;;;;;;;;;;;;;;2116084;27;4509;-76
2021/10/09 05:07:59;;;;;;;;;;;;;;;;;;2115195;27;4553;-76
2021/10/09 05:09:00;;;;;;;;;;;;;;;;;;2114797;27;4650;-76
2021/10/09 05:10:00;;;;;;;;;;;;;;;;;;2116296;27;1382;-76
2021/10/09 05:11:02;;;;;;;;;;;;;;;;;;2116264;27;4459;-76
2021/10/09 05:12:02;;;;;;;;;;;;;;;;;;2115355;27;4628;-76
2021/10/09 05:13:03;;;;;;;;;;;;;;;;;;2113856;27;4957;-76
2021/10/09 05:14:03;;;;;;;;;;;;;;;;;;2115374;27;4506;-76
2021/10/09 05:15:05;;;;;;;;;;;;;;;;;;2115370;27;4805;-77
2021/10/09 05:16:05;;;;;;;;;;;;;;;;;;2116015;27;4436;-76
2021/10/09 05:17:06;;;;;;;;;;;;;;;;;;2116143;27;5037;-76
2021/10/09 05:18:06;;;;;;;;;;;;;;;;;;2115921;27;4570;-76
2021/10/09 05:19:07;;;;;;;;;;;;;;;;;;2115580;27;4478;-76
2021/10/09 05:20:07;;;;;;;;;;;;;;;;;;2115848;27;1208;-76
2021/10/09 05:21:11;;;;;;;;;;;;;;;;;;2116758;27;2165;-76
2021/10/09 05:22:11;;;;;;;;;;;;;;;;;;2115051;27;3616;-77
2021/10/09 05:23:13;;;;;;;;;;;;;;;;;;2117256;27;1329;-76
2021/10/09 05:24:14;;;;;;;;;;;;;;;;;;2116179;27;1168;-77
2021/10/09 05:25:14;;;;;;;;;;;;;;;;;;2115931;27;4907;-77
2021/10/09 05:26:15;;;;;;;;;;;;;;;;;;2115766;27;4702;-76
2021/10/09 05:27:15;;;;;;;;;;;;;;;;;;2115507;27;4560;-78
2021/10/09 05:28:18;;;;;;;;;;;;;;;;;;2115475;27;5014;-77
2021/10/09 05:29:20;;;;;;;;;;;;;;;;;;2115097;27;4965;-76
2021/10/09 05:30:21;;;;;;;;;;;;;;;;;;2117596;27;1069;-76
2021/10/09 05:31:24;;;;;;;;;;;;;;;;;;2115677;27;4817;-76
2021/10/09 05:32:27;;;;;;;;;;;;;;;;;;2117013;27;1532;-76
2021/10/09 05:33:37;;;;;;;;;;;;;;;;;;2116132;27;4502;-77
2021/10/09 05:34:38;;;;;;;;;;;;;;;;;;2116465;27;4997;-76
2021/10/09 05:35:38;;;;;;;;;;;;;;;;;;2116640;27;4115;-76
2021/10/09 05:36:39;;;;;;;;;;;;;;;;;;2117485;27;1286;-76
2021/10/09 05:37:39;;;;;;;;;;;;;;;;;;2117898;27;1444;-76
2021/10/09 05:38:40;;;;;;;;;;;;;;;;;;2116224;27;4663;-76
2021/10/09 05:39:41;;;;;;;;;;;;;;;;;;2118014;27;1262;-76
2021/10/09 05:40:42;;;;;;;;;;;;;;;;;;2116916;27;1212;-76
2021/10/09 05:41:43;;;;;;;;;;;;;;;;;;2117343;27;1414;-77
2021/10/09 05:42:43;;;;;;;;;;;;;;;;;;2117167;27;3490;-76
2021/10/09 05:43:45;;;;;;;;;;;;;;;;;;2116759;27;4496;-77
2021/10/09 05:44:45;;;;;;;;;;;;;;;;;;2117221;27;4990;-77
2021/10/09 05:45:47;;;;;;;;;;;;;;;;;;2117722;27;1337;-77
2021/10/09 05:46:48;;;;;;;;;;;;;;;;;;2117061;27;1302;-76
2021/10/09 05:47:50;;;;;;;;;;;;;;;;;;2118226;27;4951;-76
2021/10/09 05:48:52;;;;;;;;;;;;;;;;;;2116143;27;4512;-76
2021/10/09 05:49:55;;;;;;;;;;;;;;;;;;2117132;27;5013;-76
2021/10/09 05:51:01;;;;;;;;;;;;;;;;;;2117654;27;4992;-76
2021/10/09 05:52:05;;;;;;;;;;;;;;;;;;2118525;27;1161;-78
2021/10/09 05:53:13;;;;;;;;;;;;;;;;;;2118119;27;1360;-76
2021/10/09 05:54:18;;;;;;;;;;;;;;;;;;2117807;27;4927;-76
2021/10/09 05:55:22;;;;;;;;;;;;;;;;;;2118256;27;1264;-76
2021/10/09 05:56:29;;;;;;;;;;;;;;;;;;2117683;27;4487;-76
2021/10/09 05:57:34;;;;;;;;;;;;;;;;;;2118039;27;1099;-77
2021/10/09 05:58:44;;;;;;;;;;;;;;;;;;2116339;27;4456;-76
2021/10/09 06:42:41;;;;;;;;;;;;;;;;;;2084071;28;5757;-77
2021/10/09 06:45:11;;;;;;;;;;;;;;;;;;2103763;27;4929;-76
2021/10/09 06:47:35;;;;;;;;;;;;;;;;;;2113237;27;4991;-76
2021/10/09 06:50:30;;;;;;;;;;;;;;;;;;2114223;27;4833;-76
2021/10/09 06:59:31;;;;;;;;;;;;;;;;;;2114937;27;1823;-76
2021/10/09 07:00:32;;;;;;;;;;;;;;;;;;2113822;27;4720;-76
2021/10/09 07:01:32;;;;;;;;;;;;;;;;;;2115215;27;2111;-76
2021/10/09 07:02:33;;;;;;;;;;;;;;;;;;2115118;27;1909;-76
2021/10/09 07:03:34;;;;;;;;;;;;;;;;;;2112891;27;5389;-76
2021/10/09 07:04:34;;;;;;;;;;;;;;;;;;2114019;27;5733;-76
2021/10/09 07:05:41;;;;;;;;;;;;;;;;;;2115215;27;4329;-76
2021/10/09 07:06:42;;;;;;;;;;;;;;;;;;2115283;27;1074;-76
2021/10/09 07:07:44;;;;;;;;;;;;;;;;;;2115124;27;4982;-76
2021/10/09 07:08:46;;;;;;;;;;;;;;;;;;2115105;27;4895;-77
2021/10/09 07:09:46;;;;;;;;;;;;;;;;;;2115529;27;1369;-76
2021/10/09 07:10:48;;;;;;;;;;;;;;;;;;2114951;27;4348;-76
2021/10/09 07:11:48;;;;;;;;;;;;;;;;;;2116146;27;1125;-76
2021/10/09 07:12:50;;;;;;;;;;;;;;;;;;2115361;27;4282;-77
2021/10/09 07:13:50;;;;;;;;;;;;;;;;;;2114520;27;4325;-77
2021/10/09 07:14:51;;;;;;;;;;;;;;;;;;2115885;27;1036;-76
2021/10/09 07:15:51;;;;;;;;;;;;;;;;;;2115013;27;4435;-76
2021/10/09 07:16:52;;;;;;;;;;;;;;;;;;2116345;27;1074;-76
2021/10/09 07:17:53;;;;;;;;;;;;;;;;;;2116232;27;4894;-76
2021/10/09 07:18:54;;;;;;;;;;;;;;;;;;2114556;27;4855;-76
2021/10/09 07:19:55;;;;;;;;;;;;;;;;;;2116238;27;1160;-76
2021/10/09 07:20:55;;;;;;;;;;;;;;;;;;2115830;27;4450;-77
2021/10/09 07:21:56;;;;;;;;;;;;;;;;;;2115935;27;4887;-76
2021/10/09 07:22:56;;;;;;;;;;;;;;;;;;2115593;27;4375;-77
2021/10/09 07:23:57;;;;;;;;;;;;;;;;;;2117013;27;4944;-76
2021/10/09 07:24:59;;;;;;;;;;;;;;;;;;2115199;27;4836;-77
2021/10/09 07:25:59;;;;;;;;;;;;;;;;;;2114807;27;5175;-76
2021/10/09 07:27:00;;;;;;;;;;;;;;;;;;2116585;27;2234;-77
2021/10/09 07:28:00;;;;;;;;;;;;;;;;;;2117329;27;1217;-76
2021/10/09 07:29:01;;;;;;;;;;;;;;;;;;2114313;27;4868;-76
2021/10/09 07:30:01;;;;;;;;;;;;;;;;;;2117510;27;1115;-76
2021/10/09 07:31:03;;;;;;;;;;;;;;;;;;2114565;27;2198;-76
2021/10/09 07:32:04;;;;;;;;;;;;;;;;;;2114617;27;3853;-76
2021/10/09 07:33:04;;;;;;;;;;;;;;;;;;2113562;27;4447;-76
2021/10/09 07:34:05;;;;;;;;;;;;;;;;;;2114288;27;1157;-77
2021/10/09 07:35:05;;;;;;;;;;;;;;;;;;2113741;27;4821;-76
2021/10/09 07:36:06;;;;;;;;;;;;;;;;;;2111507;27;4185;-76
2021/10/09 07:37:06;;;;;;;;;;;;;;;;;;2113674;27;1232;-76
2021/10/09 07:38:07;;;;;;;;;;;;;;;;;;2114558;27;1176;-76
2021/10/09 07:39:07;;;;;;;;;;;;;;;;;;2112078;27;4749;-76
2021/10/09 07:40:09;;;;;;;;;;;;;;;;;;2113407;27;2063;-77
2021/10/09 07:41:09;;;;;;;;;;;;;;;;;;2113952;27;4237;-76
2021/10/09 07:42:10;;;;;;;;;;;;;;;;;;2114377;27;4324;-76
2021/10/09 07:43:10;;;;;;;;;;;;;;;;;;2114055;27;4484;-76
2021/10/09 07:44:11;;;;;;;;;;;;;;;;;;2114458;27;1164;-77
2021/10/09 07:45:11;;;;;;;;;;;;;;;;;;2113541;27;4813;-77
2021/10/09 07:46:12;;;;;;;;;;;;;;;;;;2113426;27;4380;-76
2021/10/09 07:47:13;;;;;;;;;;;;;;;;;;2113940;27;1161;-76
2021/10/09 07:48:14;;;;;;;;;;;;;;;;;;2114423;27;4368;-77
2021/10/09 07:49:14;;;;;;;;;;;;;;;;;;2113846;27;4376;-76
2021/10/09 07:50:15;;;;;;;;;;;;;;;;;;2114193;27;1043;-77
2021/10/09 07:51:16;;;;;;;;;;;;;;;;;;2114434;27;1179;-76
2021/10/09 07:52:17;;;;;;;;;;;;;;;;;;2114107;27;4407;-77
2021/10/09 07:53:17;;;;;;;;;;;;;;;;;;2114087;27;4277;-77
2021/10/09 07:54:18;;;;;;;;;;;;;;;;;;2114738;27;1181;-77
2021/10/09 07:55:19;;;;;;;;;;;;;;;;;;2112927;27;4828;-76
2021/10/09 07:56:19;;;;;;;;;;;;;;;;;;2113784;27;1406;-76
2021/10/09 07:57:20;;;;;;;;;;;;;;;;;;2113123;27;4519;-77
2021/10/09 07:58:20;;;;;;;;;;;;;;;;;;2113256;27;4773;-76
2021/10/09 07:59:21;;;;;;;;;;;;;;;;;;2113031;27;4373;-76
2021/10/09 08:00:22;;;;;;;;;;;;;;;;;;2114333;27;1198;-77
2021/10/09 08:01:23;;;;;;;;;;;;;;;;;;2114453;27;4373;-76
2021/10/09 08:02:23;;;;;;;;;;;;;;;;;;2114365;27;1990;-76
2021/10/09 08:03:25;;;;;;;;;;;;;;;;;;2113865;27;4431;-76
2021/10/09 08:04:27;;;;;;;;;;;;;;;;;;2113865;27;1279;-76
2021/10/09 08:05:28;;;;;;;;;;;;;;;;;;2112939;27;4777;-76
2021/10/09 08:06:29;;;;;;;;;;;;;;;;;;2113084;27;4712;-76
2021/10/09 08:07:30;;;;;;;;;;;;;;;;;;2113508;27;4426;-76
2021/10/09 08:08:30;;;;;;;;;;;;;;;;;;2113293;27;4169;-77
2021/10/09 08:09:34;;;;;;;;;;;;;;;;;;2112352;27;4389;-75
2021/10/09 08:10:34;;;;;;;;;;;;;;;;;;2114025;27;4401;-76